createdAt,value
2019-02-22T00:00:43.019Z,8.28
2019-02-22T00:01:42.979Z,8.25
2019-02-22T00:02:42.975Z,8.21
2019-02-22T00:03:42.977Z,8.20
2019-02-22T00:04:42.974Z,8.18
2019-02-22T00:05:42.966Z,8.17
2019-02-22T00:06:43.007Z,8.15
2019-02-22T00:07:42.967Z,8.12
2019-02-22T00:08:42.966Z,8.11
2019-02-22T00:09:49.409Z,8.17
2019-02-22T00:10:42.992Z,8.14
2019-02-22T00:11:42.956Z,8.08
2019-02-22T00:12:42.953Z,8.08
2019-02-22T00:13:42.947Z,8.04
2019-02-22T00:14:42.948Z,8.11
2019-02-22T00:15:42.950Z,8.10
2019-02-22T00:16:42.980Z,8.14
2019-02-22T00:17:42.998Z,8.03
2019-02-22T00:18:42.943Z,7.97
2019-02-22T00:19:42.936Z,7.94
2019-02-22T00:20:42.967Z,8.04
2019-02-22T00:21:42.931Z,8.07
2019-02-22T00:22:42.923Z,7.97
2019-02-22T00:23:42.919Z,8.03
2019-02-22T00:24:42.925Z,8.08
2019-02-22T00:25:42.955Z,8.03
2019-02-22T00:26:42.958Z,8.07
2019-02-22T00:27:42.919Z,8.07
2019-02-22T00:28:42.915Z,8.10
2019-02-22T00:29:42.916Z,8.02
2019-02-22T00:30:42.911Z,8.11
2019-02-22T00:31:42.933Z,8.11
2019-02-22T00:32:42.903Z,8.14
2019-02-22T00:33:42.898Z,8.15
2019-02-22T00:34:42.994Z,8.14
2019-02-22T00:35:42.953Z,8.18
2019-02-22T00:36:42.896Z,8.18
2019-02-22T00:37:42.931Z,8.26
2019-02-22T00:38:42.887Z,8.26
2019-02-22T00:39:42.885Z,8.28
2019-02-22T00:40:42.884Z,8.32
2019-02-22T00:41:42.911Z,8.35
2019-02-22T00:42:42.880Z,8.29
2019-02-22T00:43:42.873Z,8.30
2019-02-22T00:44:42.873Z,8.26
2019-02-22T00:45:42.872Z,8.32
2019-02-22T00:46:42.915Z,8.30
2019-02-22T00:47:42.864Z,8.39
2019-02-22T00:48:42.862Z,8.28
2019-02-22T00:49:42.855Z,8.30
2019-02-22T00:50:42.855Z,8.39
2019-02-22T00:51:42.882Z,8.32
2019-02-22T00:52:42.892Z,8.36
2019-02-22T00:53:42.858Z,8.29
2019-02-22T00:54:42.853Z,8.40
2019-02-22T00:55:42.846Z,8.39
2019-02-22T00:56:42.876Z,8.39
2019-02-22T00:57:42.840Z,8.40
2019-02-22T00:58:42.834Z,8.36
2019-02-22T00:59:42.831Z,8.33
2019-02-22T01:00:42.841Z,8.35
2019-02-22T01:01:42.871Z,8.36
2019-02-22T01:02:42.827Z,8.40
2019-02-22T01:03:42.821Z,8.53
2019-02-22T01:04:42.823Z,8.50
2019-02-22T01:05:42.822Z,8.51
2019-02-22T01:06:42.843Z,8.48
2019-02-22T01:07:42.858Z,8.48
2019-02-22T01:08:42.815Z,8.45
2019-02-22T01:09:42.815Z,8.48
2019-02-22T01:10:42.806Z,8.30
2019-02-22T01:11:42.842Z,8.40
2019-02-22T01:12:42.801Z,8.37
2019-02-22T01:13:42.795Z,8.36
2019-02-22T01:14:42.801Z,8.42
2019-02-22T01:15:42.797Z,8.48
2019-02-22T01:16:42.833Z,8.42
2019-02-22T01:17:42.799Z,8.39
2019-02-22T01:18:42.792Z,8.42
2019-02-22T01:19:42.796Z,8.42
2019-02-22T01:20:53.727Z,8.32
2019-02-22T01:21:42.820Z,8.29
2019-02-22T01:22:42.788Z,8.37
2019-02-22T01:23:42.783Z,8.33
2019-02-22T01:24:42.772Z,8.26
2019-02-22T01:25:42.780Z,8.25
2019-02-22T01:26:42.807Z,8.21
2019-02-22T01:27:42.764Z,8.21
2019-02-22T01:28:42.771Z,8.21
2019-02-22T01:29:42.770Z,8.25
2019-02-22T01:30:42.761Z,8.20
2019-02-22T01:31:42.798Z,8.21
2019-02-22T01:32:42.759Z,8.28
2019-02-22T01:33:42.757Z,8.21
2019-02-22T01:34:42.759Z,8.21
2019-02-22T01:35:42.752Z,8.21
2019-02-22T01:36:42.786Z,8.14
2019-02-22T01:37:42.746Z,8.22
2019-02-22T01:38:42.748Z,8.18
2019-02-22T01:39:42.742Z,8.17
2019-02-22T01:40:44.126Z,8.17
2019-02-22T01:41:42.777Z,8.17
2019-02-22T01:42:42.736Z,8.18
2019-02-22T01:43:42.734Z,8.20
2019-02-22T01:44:42.731Z,8.17
2019-02-22T01:45:42.726Z,8.15
2019-02-22T01:46:42.726Z,8.15
2019-02-22T01:47:42.766Z,8.20
2019-02-22T01:48:42.722Z,8.17
2019-02-22T01:49:42.713Z,8.20
2019-02-22T01:50:42.715Z,8.20
2019-02-22T01:51:42.719Z,8.14
2019-02-22T01:52:42.746Z,8.14
2019-02-22T01:53:42.709Z,8.12
2019-02-22T01:54:42.762Z,8.11
2019-02-22T01:55:42.702Z,8.25
2019-02-22T01:56:42.697Z,8.22
2019-02-22T01:57:42.725Z,8.26
2019-02-22T01:58:48.693Z,8.29
2019-02-22T01:59:42.695Z,8.15
2019-02-22T02:00:42.688Z,8.14
2019-02-22T02:01:42.685Z,8.25
2019-02-22T02:02:42.713Z,8.14
2019-02-22T02:03:42.688Z,8.28
2019-02-22T02:04:42.714Z,8.20
2019-02-22T02:05:42.753Z,8.25
2019-02-22T02:06:42.678Z,8.22
2019-02-22T02:07:42.705Z,8.20
2019-02-22T02:08:42.669Z,8.22
2019-02-22T02:09:42.666Z,8.25
2019-02-22T02:10:53.422Z,8.18
2019-02-22T02:11:42.667Z,8.20
2019-02-22T02:12:42.695Z,8.14
2019-02-22T02:13:42.657Z,8.11
2019-02-22T02:14:43.313Z,8.11
2019-02-22T02:15:42.664Z,8.14
2019-02-22T02:16:42.649Z,8.18
2019-02-22T02:17:42.695Z,8.00
2019-02-22T02:18:42.653Z,8.03
2019-02-22T02:19:42.648Z,8.12
2019-02-22T02:20:42.654Z,7.99
2019-02-22T02:21:42.648Z,8.07
2019-02-22T02:22:42.679Z,8.04
2019-02-22T02:23:42.641Z,8.08
2019-02-22T02:24:42.641Z,8.08
2019-02-22T02:25:42.635Z,8.10
2019-02-22T02:26:42.633Z,8.07
2019-02-22T02:27:42.660Z,8.14
2019-02-22T02:28:42.631Z,8.10
2019-02-22T02:29:42.628Z,8.07
2019-02-22T02:30:42.625Z,7.96
2019-02-22T02:31:42.620Z,8.07
2019-02-22T02:32:42.646Z,7.94
2019-02-22T02:33:42.643Z,8.07
2019-02-22T02:34:42.617Z,8.03
2019-02-22T02:35:42.613Z,7.94
2019-02-22T02:36:42.610Z,7.94
2019-02-22T02:37:42.635Z,8.04
2019-02-22T02:38:42.612Z,8.00
2019-02-22T02:39:42.605Z,7.96
2019-02-22T02:40:42.599Z,8.07
2019-02-22T02:41:42.595Z,7.94
2019-02-22T02:42:42.592Z,8.08
2019-02-22T02:43:42.621Z,7.97
2019-02-22T02:44:42.586Z,8.10
2019-02-22T02:45:42.583Z,8.08
2019-02-22T02:46:42.585Z,7.94
2019-02-22T02:47:42.584Z,8.00
2019-02-22T02:48:42.612Z,8.04
2019-02-22T02:49:42.611Z,8.14
2019-02-22T02:50:42.574Z,8.08
2019-02-22T02:51:42.574Z,8.07
2019-02-22T02:52:42.573Z,7.97
2019-02-22T02:53:42.601Z,7.93
2019-02-22T02:54:42.562Z,8.08
2019-02-22T02:55:42.562Z,7.94
2019-02-22T02:56:42.561Z,7.96
2019-02-22T02:57:42.562Z,7.94
2019-02-22T02:58:42.584Z,8.00
2019-02-22T02:59:42.552Z,8.02
2019-02-22T03:00:42.548Z,7.96
2019-02-22T03:01:42.543Z,7.99
2019-02-22T03:02:42.544Z,7.97
2019-02-22T03:03:42.566Z,7.99
2019-02-22T03:04:42.542Z,8.02
2019-02-22T03:05:42.535Z,7.94
2019-02-22T03:06:42.531Z,7.97
2019-02-22T03:07:42.533Z,7.96
2019-02-22T03:08:42.558Z,8.00
2019-02-22T03:09:42.557Z,7.90
2019-02-22T03:10:42.533Z,7.96
2019-02-22T03:11:42.553Z,7.96
2019-02-22T03:12:42.528Z,7.92
2019-02-22T03:13:42.546Z,7.85
2019-02-22T03:14:42.517Z,8.02
2019-02-22T03:15:42.511Z,7.96
2019-02-22T03:16:42.512Z,8.02
2019-02-22T03:17:42.504Z,8.07
2019-02-22T03:18:42.532Z,8.04
2019-02-22T03:19:42.505Z,7.96
2019-02-22T03:20:42.500Z,7.92
2019-02-22T03:21:42.516Z,7.96
2019-02-22T03:22:42.491Z,7.97
2019-02-22T03:23:42.517Z,7.85
2019-02-22T03:24:42.516Z,7.87
2019-02-22T03:25:42.494Z,7.96
2019-02-22T03:26:42.486Z,7.94
2019-02-22T03:27:42.481Z,7.89
2019-02-22T03:28:42.510Z,7.93
2019-02-22T03:29:42.475Z,7.99
2019-02-22T03:30:42.534Z,7.99
2019-02-22T03:31:42.521Z,7.99
2019-02-22T03:32:42.469Z,8.00
2019-02-22T03:33:42.533Z,7.90
2019-02-22T03:34:42.469Z,7.96
2019-02-22T03:35:42.460Z,7.96
2019-02-22T03:36:42.463Z,7.99
2019-02-22T03:37:42.460Z,8.10
2019-02-22T03:38:42.481Z,7.99
2019-02-22T03:39:42.452Z,7.97
2019-02-22T03:40:42.454Z,7.96
2019-02-22T03:41:42.446Z,7.92
2019-02-22T03:42:42.449Z,8.02
2019-02-22T03:43:42.486Z,7.99
2019-02-22T03:44:42.470Z,7.99
2019-02-22T03:45:42.445Z,8.04
2019-02-22T03:46:42.432Z,8.02
2019-02-22T03:47:42.435Z,8.04
2019-02-22T03:48:42.464Z,7.96
2019-02-22T03:49:42.432Z,7.99
2019-02-22T03:50:42.457Z,7.99
2019-02-22T03:51:42.420Z,7.97
2019-02-22T03:52:42.421Z,7.99
2019-02-22T03:53:42.438Z,7.96
2019-02-22T03:54:42.445Z,8.02
2019-02-22T03:55:42.413Z,8.02
2019-02-22T03:56:42.409Z,7.99
2019-02-22T03:57:42.409Z,8.02
2019-02-22T03:58:42.404Z,8.03
2019-02-22T03:59:42.466Z,7.96
2019-02-22T04:00:42.428Z,7.99
2019-02-22T04:01:42.406Z,8.00
2019-02-22T04:02:42.400Z,8.00
2019-02-22T04:03:42.392Z,7.96
2019-02-22T04:04:42.519Z,7.96
2019-02-22T04:05:42.389Z,7.96
2019-02-22T04:06:42.441Z,7.93
2019-02-22T04:07:42.389Z,7.92
2019-02-22T04:08:42.384Z,7.99
2019-02-22T04:09:42.412Z,7.94
2019-02-22T04:10:42.383Z,7.94
2019-02-22T04:11:45.995Z,7.90
2019-02-22T04:12:42.369Z,8.02
2019-02-22T04:13:42.373Z,7.94
2019-02-22T04:14:42.398Z,8.00
2019-02-22T04:15:42.360Z,7.96
2019-02-22T04:16:42.362Z,7.94
2019-02-22T04:17:42.362Z,7.92
2019-02-22T04:18:42.359Z,7.85
2019-02-22T04:19:42.382Z,7.82
2019-02-22T04:20:42.352Z,7.94
2019-02-22T04:21:42.351Z,7.92
2019-02-22T04:22:44.425Z,7.92
2019-02-22T04:23:42.341Z,8.02
2019-02-22T04:24:42.370Z,7.96
2019-02-22T04:25:42.339Z,8.11
2019-02-22T04:26:42.337Z,7.93
2019-02-22T04:27:42.337Z,8.02
2019-02-22T04:28:42.331Z,8.00
2019-02-22T04:29:42.356Z,7.99
2019-02-22T04:30:42.360Z,8.02
2019-02-22T04:31:42.325Z,8.00
2019-02-22T04:32:42.321Z,7.99
2019-02-22T04:33:42.324Z,8.02
2019-02-22T04:34:42.345Z,8.02
2019-02-22T04:35:42.313Z,7.97
2019-02-22T04:36:42.319Z,7.97
2019-02-22T04:37:42.318Z,8.08
2019-02-22T04:38:42.308Z,8.00
2019-02-22T04:39:42.335Z,8.08
2019-02-22T04:40:42.302Z,7.97
2019-02-22T04:41:42.297Z,7.94
2019-02-22T04:42:42.297Z,7.99
2019-02-22T04:43:42.299Z,7.93
2019-02-22T04:44:42.322Z,7.99
2019-02-22T04:45:42.323Z,7.94
2019-02-22T04:46:42.292Z,8.03
2019-02-22T04:47:42.286Z,7.99
2019-02-22T04:48:42.281Z,8.10
2019-02-22T04:49:42.315Z,7.97
2019-02-22T04:50:42.306Z,7.96
2019-02-22T04:51:42.303Z,7.94
2019-02-22T04:52:42.279Z,7.94
2019-02-22T04:53:42.270Z,7.94
2019-02-22T04:54:42.306Z,8.00
2019-02-22T04:55:42.283Z,7.99
2019-02-22T04:56:42.278Z,7.99
2019-02-22T04:57:42.296Z,8.00
2019-02-22T04:58:42.259Z,7.93
2019-02-22T04:59:42.287Z,7.97
2019-02-22T05:00:42.283Z,7.96
2019-02-22T05:01:42.254Z,7.97
2019-02-22T05:02:42.253Z,7.93
2019-02-22T05:03:42.249Z,8.03
2019-02-22T05:04:42.246Z,7.90
2019-02-22T05:05:42.273Z,7.92
2019-02-22T05:06:42.242Z,7.96
2019-02-22T05:07:42.261Z,7.99
2019-02-22T05:08:42.237Z,7.96
2019-02-22T05:09:42.240Z,7.92
2019-02-22T05:10:42.291Z,7.94
2019-02-22T05:11:42.237Z,7.94
2019-02-22T05:12:42.231Z,7.89
2019-02-22T05:13:42.226Z,7.87
2019-02-22T05:14:42.227Z,7.90
2019-02-22T05:15:42.252Z,7.84
2019-02-22T05:16:42.212Z,7.90
2019-02-22T05:17:42.245Z,7.87
2019-02-22T05:18:42.210Z,7.90
2019-02-22T05:19:42.211Z,7.89
2019-02-22T05:20:42.234Z,7.90
2019-02-22T05:21:42.208Z,7.92
2019-02-22T05:22:42.199Z,7.90
2019-02-22T05:23:42.226Z,7.85
2019-02-22T05:24:42.195Z,7.84
2019-02-22T05:25:42.194Z,7.81
2019-02-22T05:26:42.191Z,7.85
2019-02-22T05:27:42.186Z,7.82
2019-02-22T05:28:42.213Z,7.82
2019-02-22T05:29:42.184Z,7.78
2019-02-22T05:30:42.212Z,7.85
2019-02-22T05:31:42.194Z,7.81
2019-02-22T05:32:42.174Z,7.87
2019-02-22T05:33:42.183Z,7.85
2019-02-22T05:34:42.174Z,7.85
2019-02-22T05:35:42.196Z,7.82
2019-02-22T05:36:44.127Z,7.87
2019-02-22T05:37:42.166Z,7.82
2019-02-22T05:38:42.167Z,7.79
2019-02-22T05:39:42.188Z,7.82
2019-02-22T05:40:42.182Z,7.85
2019-02-22T05:41:42.155Z,7.84
2019-02-22T05:42:42.154Z,7.78
2019-02-22T05:43:42.151Z,7.82
2019-02-22T05:44:42.144Z,7.85
2019-02-22T05:45:42.172Z,7.81
2019-02-22T05:46:42.140Z,7.77
2019-02-22T05:47:42.135Z,7.78
2019-02-22T05:48:42.138Z,7.71
2019-02-22T05:49:42.139Z,7.66
2019-02-22T05:50:42.158Z,7.74
2019-02-22T05:51:42.128Z,7.69
2019-02-22T05:52:42.133Z,7.63
2019-02-22T05:53:42.123Z,7.69
2019-02-22T05:54:42.120Z,7.62
2019-02-22T05:55:44.247Z,7.71
2019-02-22T05:56:42.119Z,7.71
2019-02-22T05:57:42.114Z,7.77
2019-02-22T05:58:42.107Z,7.67
2019-02-22T05:59:42.107Z,7.66
2019-02-22T06:00:42.103Z,7.77
2019-02-22T06:01:42.133Z,7.74
2019-02-22T06:02:42.100Z,7.69
2019-02-22T06:03:42.079Z,7.77
2019-02-22T06:04:42.098Z,7.72
2019-02-22T06:05:42.099Z,7.69
2019-02-22T06:06:42.118Z,7.69
2019-02-22T06:07:42.083Z,7.71
2019-02-22T06:08:42.079Z,7.75
2019-02-22T06:09:42.148Z,7.72
2019-02-22T06:10:42.076Z,7.74
2019-02-22T06:11:42.113Z,7.63
2019-02-22T06:12:42.102Z,7.66
2019-02-22T06:13:42.069Z,7.67
2019-02-22T06:14:42.066Z,7.67
2019-02-22T06:15:42.094Z,7.67
2019-02-22T06:16:42.100Z,7.59
2019-02-22T06:17:42.060Z,7.60
2019-02-22T06:18:42.058Z,7.69
2019-02-22T06:19:42.202Z,7.67
2019-02-22T06:20:42.076Z,7.66
2019-02-22T06:21:42.071Z,7.63
2019-02-22T06:22:42.054Z,7.60
2019-02-22T06:23:42.042Z,7.60
2019-02-22T06:24:42.042Z,7.69
2019-02-22T06:25:42.036Z,7.66
2019-02-22T06:26:42.058Z,7.59
2019-02-22T06:27:42.039Z,7.66
2019-02-22T06:28:42.030Z,7.58
2019-02-22T06:29:42.025Z,7.63
2019-02-22T06:30:42.030Z,7.67
2019-02-22T06:31:42.048Z,7.66
2019-02-22T06:32:42.443Z,7.69
2019-02-22T06:33:42.019Z,7.59
2019-02-22T06:34:42.035Z,7.59
2019-02-22T06:35:42.008Z,7.60
2019-02-22T06:36:42.036Z,7.67
2019-02-22T06:37:42.035Z,7.69
2019-02-22T06:38:42.002Z,7.69
2019-02-22T06:39:41.997Z,7.58
2019-02-22T06:40:41.996Z,7.66
2019-02-22T06:41:42.036Z,7.63
2019-02-22T06:42:45.909Z,7.58
2019-02-22T06:43:41.988Z,7.59
2019-02-22T06:44:41.984Z,7.59
2019-02-22T06:45:41.994Z,7.59
2019-02-22T06:46:42.016Z,7.63
2019-02-22T06:47:41.980Z,7.59
2019-02-22T06:48:41.976Z,7.63
2019-02-22T06:49:44.366Z,7.56
2019-02-22T06:50:41.974Z,7.58
2019-02-22T06:51:41.996Z,7.58
2019-02-22T06:52:41.965Z,7.62
2019-02-22T06:53:41.961Z,7.60
2019-02-22T06:54:41.963Z,7.56
2019-02-22T06:55:41.958Z,7.69
2019-02-22T06:56:41.987Z,7.60
2019-02-22T06:57:41.955Z,7.63
2019-02-22T06:58:41.949Z,7.60
2019-02-22T06:59:41.944Z,7.58
2019-02-22T07:00:41.940Z,7.58
2019-02-22T07:01:41.942Z,7.60
2019-02-22T07:02:41.965Z,7.58
2019-02-22T07:03:41.933Z,7.58
2019-02-22T07:04:41.936Z,7.62
2019-02-22T07:05:41.934Z,7.62
2019-02-22T07:06:41.932Z,7.58
2019-02-22T07:07:41.951Z,7.62
2019-02-22T07:08:41.936Z,7.59
2019-02-22T07:09:41.917Z,7.58
2019-02-22T07:10:41.918Z,7.60
2019-02-22T07:11:41.917Z,7.55
2019-02-22T07:12:41.943Z,7.62
2019-02-22T07:13:41.909Z,7.62
2019-02-22T07:14:41.905Z,7.63
2019-02-22T07:15:41.902Z,7.60
2019-02-22T07:16:41.901Z,7.69
2019-02-22T07:17:41.925Z,7.58
2019-02-22T07:18:41.929Z,7.58
2019-02-22T07:19:41.890Z,7.59
2019-02-22T07:20:41.886Z,7.66
2019-02-22T07:21:52.109Z,7.55
2019-02-22T07:22:41.913Z,7.62
2019-02-22T07:23:41.881Z,7.69
2019-02-22T07:24:41.877Z,7.69
2019-02-22T07:25:41.881Z,7.60
2019-02-22T07:26:41.878Z,7.60
2019-02-22T07:27:41.899Z,7.58
2019-02-22T07:28:41.903Z,7.58
2019-02-22T07:29:41.865Z,7.58
2019-02-22T07:30:41.863Z,7.59
2019-02-22T07:31:41.863Z,7.62
2019-02-22T07:32:41.959Z,7.58
2019-02-22T07:33:41.855Z,7.59
2019-02-22T07:34:41.855Z,7.56
2019-02-22T07:35:41.870Z,7.62
2019-02-22T07:36:41.846Z,7.62
2019-02-22T07:37:41.873Z,7.59
2019-02-22T07:38:41.844Z,7.63
2019-02-22T07:39:41.837Z,7.63
2019-02-22T07:40:41.837Z,7.58
2019-02-22T07:41:41.833Z,7.77
2019-02-22T07:42:41.861Z,7.67
2019-02-22T07:43:41.831Z,7.72
2019-02-22T07:44:41.829Z,7.62
2019-02-22T07:45:41.824Z,7.75
2019-02-22T07:46:41.822Z,7.66
2019-02-22T07:47:41.846Z,7.71
2019-02-22T07:48:41.847Z,7.69
2019-02-22T07:49:41.815Z,7.69
2019-02-22T07:50:42.605Z,7.63
2019-02-22T07:51:41.803Z,7.63
2019-02-22T07:52:41.833Z,7.75
2019-02-22T07:53:41.808Z,7.69
2019-02-22T07:54:41.830Z,7.63
2019-02-22T07:55:41.799Z,7.75
2019-02-22T07:56:41.796Z,7.77
2019-02-22T07:57:41.819Z,7.79
2019-02-22T07:58:41.792Z,7.72
2019-02-22T07:59:41.787Z,7.81
2019-02-22T08:00:41.814Z,7.66
2019-02-22T08:01:47.474Z,7.85
2019-02-22T08:02:41.783Z,7.77
2019-02-22T08:03:41.806Z,7.77
2019-02-22T08:04:41.774Z,7.85
2019-02-22T08:05:41.776Z,7.85
2019-02-22T08:06:42.575Z,7.79
2019-02-22T08:07:41.769Z,7.74
2019-02-22T08:08:41.797Z,7.75
2019-02-22T08:09:41.766Z,7.77
2019-02-22T08:10:41.761Z,7.81
2019-02-22T08:11:41.774Z,7.74
2019-02-22T08:12:41.756Z,7.84
2019-02-22T08:13:41.784Z,7.85
2019-02-22T08:14:41.750Z,7.82
2019-02-22T08:15:41.749Z,7.75
2019-02-22T08:16:41.748Z,7.77
2019-02-22T08:17:41.746Z,7.79
2019-02-22T08:18:41.770Z,7.79
2019-02-22T08:19:41.740Z,7.67
2019-02-22T08:20:41.738Z,7.77
2019-02-22T08:21:41.736Z,7.77
2019-02-22T08:22:41.740Z,7.67
2019-02-22T08:23:41.758Z,7.75
2019-02-22T08:24:41.726Z,7.66
2019-02-22T08:25:41.737Z,7.75
2019-02-22T08:26:41.724Z,7.62
2019-02-22T08:27:52.705Z,7.58
2019-02-22T08:28:41.745Z,7.59
2019-02-22T08:29:41.715Z,7.59
2019-02-22T08:30:41.717Z,7.58
2019-02-22T08:31:41.710Z,7.58
2019-02-22T08:32:41.707Z,7.60
2019-02-22T08:33:41.735Z,7.49
2019-02-22T08:34:41.703Z,7.45
2019-02-22T08:35:41.700Z,7.49
2019-02-22T08:36:41.699Z,7.52
2019-02-22T08:37:41.723Z,7.47
2019-02-22T08:38:41.718Z,7.47
2019-02-22T08:39:41.694Z,7.44
2019-02-22T08:40:41.686Z,7.32
2019-02-22T08:41:41.691Z,7.41
2019-02-22T08:42:41.684Z,7.44
2019-02-22T08:43:41.708Z,7.44
2019-02-22T08:44:41.680Z,7.29
2019-02-22T08:45:41.675Z,7.40
2019-02-22T08:46:41.673Z,7.35
2019-02-22T08:47:41.670Z,7.37
2019-02-22T08:48:41.667Z,7.40
2019-02-22T08:49:41.695Z,7.42
2019-02-22T08:50:41.666Z,7.37
2019-02-22T08:51:41.659Z,7.37
2019-02-22T08:52:41.654Z,7.41
2019-02-22T08:53:41.656Z,7.37
2019-02-22T08:54:47.187Z,7.41
2019-02-22T08:55:41.682Z,7.44
2019-02-22T08:56:41.647Z,7.50
2019-02-22T08:57:41.648Z,7.44
2019-02-22T08:58:41.654Z,7.41
2019-02-22T08:59:41.639Z,7.34
2019-02-22T09:00:41.666Z,7.49
2019-02-22T09:01:41.637Z,7.47
2019-02-22T09:02:41.635Z,7.60
2019-02-22T09:03:49.738Z,7.58
2019-02-22T09:04:41.656Z,7.74
2019-02-22T09:05:41.623Z,7.60
2019-02-22T09:06:41.631Z,7.58
2019-02-22T09:07:41.626Z,7.67
2019-02-22T09:08:41.616Z,7.71
2019-02-22T09:09:41.643Z,7.79
2019-02-22T09:10:41.611Z,7.79
2019-02-22T09:11:41.607Z,7.84
2019-02-22T09:12:41.609Z,7.81
2019-02-22T09:13:43.801Z,7.75
2019-02-22T09:14:41.627Z,7.81
2019-02-22T09:15:41.608Z,7.82
2019-02-22T09:16:41.595Z,7.81
2019-02-22T09:17:41.598Z,7.85
2019-02-22T09:18:41.595Z,7.87
2019-02-22T09:19:41.616Z,7.93
2019-02-22T09:20:41.626Z,7.84
2019-02-22T09:21:41.585Z,7.81
2019-02-22T09:22:41.585Z,7.79
2019-02-22T09:23:41.580Z,7.84
2019-02-22T09:24:41.611Z,7.82
2019-02-22T09:25:41.575Z,7.87
2019-02-22T09:26:41.575Z,7.81
2019-02-22T09:27:41.575Z,7.77
2019-02-22T09:28:41.571Z,7.81
2019-02-22T09:29:41.616Z,7.72
2019-02-22T09:30:41.568Z,7.78
2019-02-22T09:31:41.563Z,7.67
2019-02-22T09:32:41.559Z,7.66
2019-02-22T09:33:41.560Z,7.59
2019-02-22T09:34:41.588Z,7.69
2019-02-22T09:35:41.557Z,7.58
2019-02-22T09:36:41.643Z,7.58
2019-02-22T09:37:41.565Z,7.67
2019-02-22T09:38:41.548Z,7.62
2019-02-22T09:39:41.572Z,7.60
2019-02-22T09:40:41.587Z,7.60
2019-02-22T09:41:41.545Z,7.63
2019-02-22T09:42:41.540Z,7.66
2019-02-22T09:43:41.537Z,7.66
2019-02-22T09:44:41.565Z,7.77
2019-02-22T09:45:41.560Z,7.77
2019-02-22T09:46:41.530Z,7.82
2019-02-22T09:47:41.530Z,7.87
2019-02-22T09:48:41.622Z,7.77
2019-02-22T09:49:41.556Z,7.66
2019-02-22T09:50:41.522Z,7.67
2019-02-22T09:51:41.525Z,7.67
2019-02-22T09:52:41.516Z,7.63
2019-02-22T09:53:41.518Z,7.74
2019-02-22T09:54:41.540Z,7.67
2019-02-22T09:55:41.507Z,7.72
2019-02-22T09:56:41.511Z,7.71
2019-02-22T09:57:41.516Z,7.71
2019-02-22T09:58:41.505Z,7.71
2019-02-22T09:59:41.504Z,7.75
2019-02-22T10:00:41.530Z,7.59
2019-02-22T10:01:41.496Z,7.56
2019-02-22T10:02:41.505Z,7.74
2019-02-22T10:03:41.495Z,7.74
2019-02-22T10:04:41.519Z,7.82
2019-02-22T10:05:41.516Z,7.81
2019-02-22T10:06:41.550Z,7.81
2019-02-22T10:07:41.482Z,7.82
2019-02-22T10:08:41.482Z,7.94
2019-02-22T10:09:41.476Z,8.00
2019-02-22T10:10:41.507Z,7.93
2019-02-22T10:11:41.546Z,7.94
2019-02-22T10:12:41.511Z,7.89
2019-02-22T10:13:41.468Z,7.90
2019-02-22T10:14:41.464Z,7.94
2019-02-22T10:15:41.496Z,7.97
2019-02-22T10:16:41.517Z,7.96
2019-02-22T10:17:41.471Z,7.94
2019-02-22T10:18:41.462Z,8.03
2019-02-22T10:19:41.459Z,7.90
2019-02-22T10:20:41.777Z,7.89
2019-02-22T10:21:41.454Z,7.96
2019-02-22T10:22:41.450Z,7.96
2019-02-22T10:23:41.481Z,7.99
2019-02-22T10:24:41.444Z,7.89
2019-02-22T10:25:41.472Z,7.82
2019-02-22T10:26:41.449Z,7.78
2019-02-22T10:27:41.447Z,7.82
2019-02-22T10:28:41.435Z,7.84
2019-02-22T10:29:41.466Z,7.82
2019-02-22T10:30:41.492Z,7.82
2019-02-22T10:31:41.451Z,7.81
2019-02-22T10:32:41.453Z,7.90
2019-02-22T10:33:41.429Z,7.93
2019-02-22T10:34:41.430Z,7.82
2019-02-22T10:35:41.452Z,7.89
2019-02-22T10:36:45.062Z,7.89
2019-02-22T10:37:41.421Z,7.94
2019-02-22T10:38:41.425Z,7.81
2019-02-22T10:39:41.417Z,7.89
2019-02-22T10:40:41.451Z,7.96
2019-02-22T10:41:41.427Z,7.87
2019-02-22T10:42:41.415Z,7.96
2019-02-22T10:43:41.408Z,7.90
2019-02-22T10:44:41.411Z,7.89
2019-02-22T10:45:41.439Z,7.82
2019-02-22T10:46:41.413Z,7.90
2019-02-22T10:47:41.422Z,7.81
2019-02-22T10:48:41.410Z,7.84
2019-02-22T10:49:41.393Z,7.66
2019-02-22T10:50:41.427Z,7.69
2019-02-22T10:51:41.420Z,7.71
2019-02-22T10:52:41.416Z,7.69
2019-02-22T10:53:41.390Z,7.59
2019-02-22T10:54:41.386Z,7.60
2019-02-22T10:55:41.415Z,7.58
2019-02-22T10:56:41.383Z,7.50
2019-02-22T10:57:41.405Z,7.50
2019-02-22T10:58:41.385Z,7.42
2019-02-22T10:59:41.377Z,7.53
2019-02-22T11:00:41.408Z,7.45
2019-02-22T11:01:41.368Z,7.45
2019-02-22T11:02:41.372Z,7.47
2019-02-22T11:03:41.368Z,7.47
2019-02-22T11:04:41.363Z,7.50
2019-02-22T11:05:41.394Z,7.32
2019-02-22T11:06:41.375Z,7.27
2019-02-22T11:07:41.356Z,7.20
2019-02-22T11:08:41.356Z,7.04
2019-02-22T11:09:41.350Z,7.02
2019-02-22T11:10:41.378Z,7.17
2019-02-22T11:11:41.347Z,7.22
2019-02-22T11:12:41.352Z,7.22
2019-02-22T11:13:41.341Z,7.27
2019-02-22T11:14:41.344Z,7.29
2019-02-22T11:15:41.338Z,7.22
2019-02-22T11:16:41.582Z,7.16
2019-02-22T11:17:41.338Z,7.15
2019-02-22T11:18:41.328Z,7.13
2019-02-22T11:19:41.325Z,6.97
2019-02-22T11:20:41.325Z,6.97
2019-02-22T11:21:41.348Z,6.83
2019-02-22T11:22:41.323Z,6.97
2019-02-22T11:23:41.318Z,6.72
2019-02-22T11:24:41.316Z,6.83
2019-02-22T11:25:41.331Z,6.73
2019-02-22T11:26:41.345Z,6.76
2019-02-22T11:27:41.309Z,6.76
2019-02-22T11:28:41.306Z,6.66
2019-02-22T11:29:41.302Z,6.66
2019-02-22T11:30:41.308Z,6.72
2019-02-22T11:31:41.327Z,6.80
2019-02-22T11:32:41.295Z,6.80
2019-02-22T11:33:41.296Z,6.80
2019-02-22T11:34:41.296Z,6.63
2019-02-22T11:35:41.287Z,6.59
2019-02-22T11:36:41.327Z,6.56
2019-02-22T11:37:41.282Z,6.38
2019-02-22T11:38:41.285Z,6.30
2019-02-22T11:39:41.278Z,6.11
2019-02-22T11:40:41.284Z,6.32
2019-02-22T11:41:41.303Z,6.35
2019-02-22T11:42:41.274Z,6.14
2019-02-22T11:43:41.265Z,6.29
2019-02-22T11:44:41.276Z,6.18
2019-02-22T11:45:41.263Z,6.04
2019-02-22T11:46:41.284Z,6.00
2019-02-22T11:47:41.258Z,6.14
2019-02-22T11:48:41.266Z,6.00
2019-02-22T11:49:41.262Z,5.86
2019-02-22T11:50:41.245Z,6.03
2019-02-22T11:51:41.280Z,6.06
2019-02-22T11:52:41.337Z,6.00
2019-02-22T11:53:41.241Z,6.03
2019-02-22T11:54:41.234Z,6.04
2019-02-22T11:55:41.229Z,6.04
2019-02-22T11:56:41.256Z,6.00
2019-02-22T11:57:41.233Z,5.98
2019-02-22T11:58:41.226Z,5.91
2019-02-22T11:59:41.218Z,5.89
2019-02-22T12:00:41.219Z,5.86
2019-02-22T12:01:41.245Z,5.82
2019-02-22T12:02:41.211Z,5.92
2019-02-22T12:03:41.217Z,6.06
2019-02-22T12:04:41.211Z,6.11
2019-02-22T12:05:41.201Z,5.93
2019-02-22T12:06:41.244Z,5.93
2019-02-22T12:07:41.195Z,6.10
2019-02-22T12:08:41.189Z,5.96
2019-02-22T12:09:41.191Z,6.07
2019-02-22T12:10:41.211Z,5.98
2019-02-22T12:11:41.244Z,6.04
2019-02-22T12:12:41.194Z,6.03
2019-02-22T12:13:41.222Z,6.00
2019-02-22T12:14:50.899Z,5.91
2019-02-22T12:15:41.171Z,5.93
2019-02-22T12:16:41.169Z,6.00
2019-02-22T12:17:41.199Z,6.04
2019-02-22T12:18:41.161Z,5.82
2019-02-22T12:19:41.177Z,5.83
2019-02-22T12:20:41.153Z,6.01
2019-02-22T12:21:41.151Z,5.92
2019-02-22T12:22:41.180Z,5.92
2019-02-22T12:23:41.150Z,5.70
2019-02-22T12:24:41.143Z,5.70
2019-02-22T12:25:41.136Z,5.49
2019-02-22T12:26:41.133Z,5.40
2019-02-22T12:27:41.163Z,5.57
2019-02-22T12:28:41.131Z,5.38
2019-02-22T12:29:41.126Z,5.50
2019-02-22T12:30:41.122Z,5.35
2019-02-22T12:31:41.119Z,5.50
2019-02-22T12:32:41.152Z,5.35
2019-02-22T12:33:41.113Z,5.34
2019-02-22T12:34:41.118Z,5.38
2019-02-22T12:35:41.107Z,5.40
2019-02-22T12:36:41.108Z,5.56
2019-02-22T12:37:41.143Z,5.25
2019-02-22T12:38:41.097Z,5.48
2019-02-22T12:39:41.093Z,5.34
2019-02-22T12:40:41.094Z,5.37
2019-02-22T12:41:41.090Z,5.34
2019-02-22T12:42:41.112Z,5.38
2019-02-22T12:43:41.084Z,5.37
2019-02-22T12:44:41.080Z,5.50
2019-02-22T12:45:41.074Z,5.53
2019-02-22T12:46:41.073Z,5.66
2019-02-22T12:47:41.100Z,5.59
2019-02-22T12:48:41.065Z,5.49
2019-02-22T12:49:41.062Z,5.60
2019-02-22T12:50:41.059Z,5.63
2019-02-22T12:51:41.063Z,5.71
2019-02-22T12:52:41.081Z,5.55
2019-02-22T12:53:41.051Z,5.60
2019-02-22T12:54:41.051Z,5.59
2019-02-22T12:55:41.051Z,5.73
2019-02-22T12:56:58.019Z,5.74
2019-02-22T12:57:41.066Z,5.85
2019-02-22T12:58:41.077Z,5.91
2019-02-22T12:59:41.029Z,5.77
2019-02-22T13:00:41.025Z,5.89
2019-02-22T13:01:41.021Z,5.81
2019-02-22T13:02:41.055Z,5.77
2019-02-22T13:03:41.021Z,5.91
2019-02-22T13:04:41.015Z,5.93
2019-02-22T13:05:41.009Z,5.86
2019-02-22T13:06:41.012Z,5.78
2019-02-22T13:07:41.042Z,5.82
2019-02-22T13:08:41.005Z,5.81
2019-02-22T13:09:40.997Z,5.73
2019-02-22T13:10:40.996Z,5.91
2019-02-22T13:11:40.993Z,5.83
2019-02-22T13:12:40.990Z,5.88
2019-02-22T13:13:41.013Z,5.75
2019-02-22T13:14:40.987Z,5.71
2019-02-22T13:15:40.979Z,5.73
2019-02-22T13:16:40.977Z,5.74
2019-02-22T13:17:40.977Z,5.70
2019-02-22T13:18:40.996Z,5.56